createdAt,value
2023-04-08T00:00:29.742Z,101706.72
2023-04-08T00:02:56.786Z,101711.13
2023-04-08T00:05:23.580Z,101716.59
2023-04-08T00:07:50.248Z,101704.94
2023-04-08T00:10:17.015Z,101712.84
2023-04-08T00:12:43.860Z,101711.28
2023-04-08T00:15:10.822Z,101717.75
2023-04-08T00:17:37.551Z,101716.00
2023-04-08T00:20:05.015Z,101720.97
2023-04-08T00:22:31.839Z,101724.34
2023-04-08T00:24:58.945Z,101719.94
2023-04-08T00:27:26.001Z,101712.84
2023-04-08T00:29:52.713Z,101718.38
2023-04-08T00:32:19.391Z,101719.41
2023-04-08T00:34:46.228Z,101717.56
2023-04-08T00:37:12.924Z,101723.97
2023-04-08T00:39:39.671Z,101722.13
2023-04-08T00:42:06.952Z,101725.97
2023-04-08T00:44:33.740Z,101725.06
2023-04-08T00:47:00.654Z,101738.16
2023-04-08T00:49:27.601Z,101730.13
2023-04-08T00:51:55.737Z,101730.94
2023-04-08T00:54:22.636Z,101732.72
2023-04-08T00:56:49.404Z,101736.97
2023-04-08T00:59:17.747Z,101740.44
2023-04-08T01:01:56.756Z,101738.66
2023-04-08T01:04:26.496Z,101739.56
2023-04-08T01:07:01.671Z,101740.34
2023-04-08T01:09:30.720Z,101742.31
2023-04-08T01:11:58.503Z,101741.53
2023-04-08T01:14:27.554Z,101750.44
2023-04-08T01:16:59.259Z,101745.16
2023-04-08T01:19:35.156Z,101740.59
2023-04-08T01:22:06.398Z,101739.03
2023-04-08T01:24:37.252Z,101733.00
2023-04-08T01:27:04.394Z,101736.56
2023-04-08T01:29:31.557Z,101738.16
2023-04-08T01:31:58.926Z,101744.50
2023-04-08T01:34:25.802Z,101747.16
2023-04-08T01:36:57.956Z,101741.00
2023-04-08T01:39:26.180Z,101747.97
2023-04-08T01:41:54.070Z,101747.06
2023-04-08T01:44:21.869Z,101749.81
2023-04-08T01:46:49.550Z,101744.56
2023-04-08T01:49:16.892Z,101754.28
2023-04-08T01:51:44.927Z,101745.66
2023-04-08T01:54:11.656Z,101746.75
2023-04-08T01:56:39.976Z,101745.03
2023-04-08T01:59:11.315Z,101743.84
2023-04-08T02:01:38.847Z,101740.09
2023-04-08T02:04:05.900Z,101747.91
2023-04-08T02:06:33.186Z,101745.34
2023-04-08T02:09:00.965Z,101742.78
2023-04-08T02:11:28.555Z,101743.63
2023-04-08T02:13:55.645Z,101744.47
2023-04-08T02:16:35.348Z,101746.19
2023-04-08T02:19:08.918Z,101747.97
2023-04-08T02:21:47.200Z,101761.06
2023-04-08T02:24:14.506Z,101762.44
2023-04-08T02:26:42.653Z,101761.22
2023-04-08T02:29:12.983Z,101759.22
2023-04-08T02:31:42.066Z,101756.56
2023-04-08T02:34:10.685Z,101754.22
2023-04-08T02:36:39.160Z,101752.72
2023-04-08T02:39:05.841Z,101756.91
2023-04-08T02:41:32.699Z,101766.97
2023-04-08T02:43:59.385Z,101765.28
2023-04-08T02:46:26.094Z,101757.34
2023-04-08T02:48:53.806Z,101752.13
2023-04-08T02:51:20.641Z,101754.59
2023-04-08T02:53:47.543Z,101756.41
2023-04-08T02:56:14.295Z,101760.75
2023-04-08T02:58:41.168Z,101756.03
2023-04-08T03:01:09.191Z,101751.34
2023-04-08T03:03:36.814Z,101759.28
2023-04-08T03:06:04.289Z,101763.84
2023-04-08T03:08:31.119Z,101759.88
2023-04-08T03:10:57.803Z,101766.19
2023-04-08T03:13:24.516Z,101767.69
2023-04-08T03:15:51.280Z,101773.09
2023-04-08T03:18:18.130Z,101767.03
2023-04-08T03:20:44.782Z,101762.06
2023-04-08T03:23:11.464Z,101760.56
2023-04-08T03:25:38.189Z,101758.03
2023-04-08T03:28:04.902Z,101762.63
2023-04-08T03:30:32.014Z,101761.56
2023-04-08T03:32:58.739Z,101771.25
2023-04-08T03:35:25.794Z,101773.31
2023-04-08T03:37:52.585Z,101771.69
2023-04-08T03:40:19.797Z,101774.56
2023-04-08T03:42:46.662Z,101777.38
2023-04-08T03:45:13.343Z,101775.50
2023-04-08T03:47:40.686Z,101773.81
2023-04-08T03:50:07.852Z,101775.69
2023-04-08T03:52:34.558Z,101772.19
2023-04-08T03:55:01.442Z,101783.75
2023-04-08T03:57:28.229Z,101782.25
2023-04-08T03:59:54.937Z,101789.75
2023-04-08T04:02:21.692Z,101778.94
2023-04-08T04:04:48.709Z,101783.81
2023-04-08T04:07:15.777Z,101784.66
2023-04-08T04:09:42.430Z,101785.66
2023-04-08T04:12:09.072Z,101785.09
2023-04-08T04:14:36.127Z,101793.06
2023-04-08T04:17:02.987Z,101790.47
2023-04-08T04:19:32.867Z,101794.91
2023-04-08T04:21:59.578Z,101794.84
2023-04-08T04:24:26.316Z,101801.03
2023-04-08T04:26:53.039Z,101797.84
2023-04-08T04:29:19.762Z,101806.06
2023-04-08T04:31:46.673Z,101808.22
2023-04-08T04:34:13.442Z,101811.75
2023-04-08T04:36:40.153Z,101813.34
2023-04-08T04:39:06.809Z,101819.63
2023-04-08T04:41:33.522Z,101819.44
2023-04-08T04:44:00.212Z,101823.28
2023-04-08T04:46:27.127Z,101817.88
2023-04-08T04:48:53.805Z,101817.94
2023-04-08T04:51:20.857Z,101818.75
2023-04-08T04:53:48.377Z,101823.72
2023-04-08T04:56:15.120Z,101818.75
2023-04-08T04:58:42.352Z,101815.44
2023-04-08T05:01:09.042Z,101822.44
2023-04-08T05:03:35.760Z,101822.84
2023-04-08T05:06:02.461Z,101821.06
2023-04-08T05:08:29.147Z,101828.38
2023-04-08T05:10:56.696Z,101836.75
2023-04-08T05:13:23.403Z,101840.78
2023-04-08T05:15:50.132Z,101847.56
2023-04-08T05:18:16.909Z,101845.56
2023-04-08T05:20:43.648Z,101850.41
2023-04-08T05:23:10.468Z,101848.16
2023-04-08T05:25:37.203Z,101849.03
2023-04-08T05:28:04.488Z,101856.59
2023-04-08T05:30:31.631Z,101849.25
2023-04-08T05:33:00.357Z,101852.50
2023-04-08T05:35:27.566Z,101851.72
2023-04-08T05:37:54.291Z,101852.53
2023-04-08T05:40:21.407Z,101859.75
2023-04-08T05:42:48.104Z,101856.91
2023-04-08T05:45:14.897Z,101870.41
2023-04-08T05:47:41.639Z,101871.16
2023-04-08T05:50:08.822Z,101871.16
2023-04-08T05:52:35.514Z,101870.91
2023-04-08T05:55:02.140Z,101872.31
2023-04-08T05:57:29.031Z,101874.75
2023-04-08T05:59:55.928Z,101879.91
2023-04-08T06:02:23.330Z,101880.41
2023-04-08T06:04:50.141Z,101884.53
2023-04-08T06:07:16.877Z,101887.91
2023-04-08T06:09:45.273Z,101884.53
2023-04-08T06:12:12.125Z,101888.75
2023-04-08T06:14:38.779Z,101889.66
2023-04-08T06:17:05.775Z,101897.47
2023-04-08T06:19:32.548Z,101898.50
2023-04-08T06:21:59.590Z,101894.66
2023-04-08T06:24:27.682Z,101900.25
2023-04-08T06:26:54.489Z,101902.19
2023-04-08T06:29:24.276Z,101908.31
2023-04-08T06:31:51.491Z,101906.38
2023-04-08T06:34:18.319Z,101904.13
2023-04-08T06:36:45.145Z,101909.59
2023-04-08T06:39:11.842Z,101908.56
2023-04-08T06:41:38.580Z,101911.91
2023-04-08T06:44:05.480Z,101910.50
2023-04-08T06:46:32.158Z,101918.88
2023-04-08T06:48:58.929Z,101916.59
2023-04-08T06:51:25.911Z,101919.25
2023-04-08T06:53:52.771Z,101924.06
2023-04-08T06:56:21.555Z,101925.38
2023-04-08T06:58:48.441Z,101929.47
2023-04-08T07:01:16.665Z,101934.56
2023-04-08T07:03:43.781Z,101941.84
2023-04-08T07:06:10.678Z,101934.56
2023-04-08T07:08:37.758Z,101943.72
2023-04-08T07:11:05.704Z,101947.81
2023-04-08T07:13:32.405Z,101946.28
2023-04-08T07:15:59.110Z,101938.19
2023-04-08T07:18:26.540Z,101947.13
2023-04-08T07:20:54.239Z,101943.00
2023-04-08T07:23:21.133Z,101952.88
2023-04-08T07:25:48.402Z,101953.75
2023-04-08T07:28:15.198Z,101958.75
2023-04-08T07:30:41.899Z,101958.84
2023-04-08T07:33:08.686Z,101963.78
2023-04-08T07:35:35.491Z,101973.41
2023-04-08T07:38:02.221Z,101974.25
2023-04-08T07:40:29.027Z,101971.22
2023-04-08T07:42:55.733Z,101979.91
2023-04-08T07:45:22.559Z,101978.06
2023-04-08T07:47:49.375Z,101976.13
2023-04-08T07:50:16.161Z,101987.53
2023-04-08T07:52:42.878Z,101980.50
2023-04-08T07:55:10.008Z,101985.78
2023-04-08T07:57:36.831Z,101986.09
2023-04-08T08:00:05.048Z,101992.69
2023-04-08T08:02:32.610Z,101998.81
2023-04-08T08:05:01.783Z,101996.19
2023-04-08T08:07:28.502Z,101991.97
2023-04-08T08:09:55.263Z,102007.91
2023-04-08T08:12:22.054Z,102002.50
2023-04-08T08:14:49.058Z,102003.88
2023-04-08T08:17:15.851Z,102013.19
2023-04-08T08:19:42.504Z,102007.38
2023-04-08T08:22:09.177Z,102013.63
2023-04-08T08:24:35.882Z,102018.91
2023-04-08T08:27:04.697Z,102012.13
2023-04-08T08:29:31.514Z,102016.44
2023-04-08T08:31:58.230Z,102014.00
2023-04-08T08:34:24.978Z,102022.81
2023-04-08T08:36:51.687Z,102024.16
2023-04-08T08:39:18.330Z,102029.75
2023-04-08T08:41:45.149Z,102026.13
2023-04-08T08:44:12.291Z,102027.84
2023-04-08T08:46:44.884Z,102025.44
2023-04-08T08:49:12.820Z,102014.16
2023-04-08T08:51:41.149Z,102015.56
2023-04-08T08:54:08.724Z,102021.34
2023-04-08T08:56:35.515Z,102016.63
2023-04-08T08:59:02.226Z,102027.38
2023-04-08T09:01:36.531Z,102024.56
2023-04-08T09:04:23.072Z,102024.06
2023-04-08T09:06:51.804Z,102028.97
2023-04-08T09:09:18.714Z,102025.56
2023-04-08T09:11:47.365Z,102018.66
2023-04-08T09:14:21.940Z,102026.16
2023-04-08T09:16:49.172Z,102026.06
2023-04-08T09:19:16.106Z,102032.81
2023-04-08T09:21:43.707Z,102037.59
2023-04-08T09:24:11.316Z,102037.78
2023-04-08T09:26:38.077Z,102032.91
2023-04-08T09:29:18.076Z,102047.00
2023-04-08T09:31:56.807Z,102044.28
2023-04-08T09:34:24.558Z,102048.25
2023-04-08T09:36:51.819Z,102055.56
2023-04-08T09:39:19.031Z,102051.22
2023-04-08T09:41:49.175Z,102045.41
2023-04-08T09:44:26.904Z,102046.41
2023-04-08T09:47:02.102Z,102045.94
2023-04-08T09:49:39.543Z,102044.19
2023-04-08T09:52:18.325Z,102051.50
2023-04-08T09:55:04.635Z,102051.03
2023-04-08T09:57:42.816Z,102052.13
2023-04-08T10:00:17.247Z,102047.91
2023-04-08T10:03:28.173Z,102038.19
2023-04-08T10:05:56.930Z,102037.34
2023-04-08T10:08:27.327Z,102037.53
2023-04-08T10:10:55.282Z,102029.44
2023-04-08T10:13:23.075Z,102032.41
2023-04-08T10:15:49.821Z,102027.75
2023-04-08T10:18:19.477Z,102033.38
2023-04-08T10:20:47.058Z,102036.28
2023-04-08T10:23:17.872Z,102044.22
2023-04-08T10:25:45.745Z,102039.72
2023-04-08T10:28:12.431Z,102045.19
2023-04-08T10:30:42.791Z,102037.38
2023-04-08T10:33:15.868Z,102035.38
2023-04-08T10:35:51.413Z,102041.38
2023-04-08T10:38:19.082Z,102038.63
2023-04-08T10:40:46.261Z,102039.59
2023-04-08T10:43:14.038Z,102045.53
2023-04-08T10:45:42.065Z,102032.06
2023-04-08T10:48:29.234Z,102034.47
2023-04-08T10:50:56.881Z,102033.16
2023-04-08T10:53:40.134Z,102033.34
2023-04-08T10:56:07.875Z,102029.50
2023-04-08T10:58:48.349Z,102030.22
2023-04-08T11:01:15.136Z,102024.72
2023-04-08T11:03:43.128Z,102028.38
2023-04-08T11:06:10.129Z,102033.00
2023-04-08T11:08:37.236Z,102030.94
2023-04-08T11:11:05.758Z,102029.34
2023-04-08T11:13:33.426Z,102028.38
2023-04-08T11:16:00.672Z,102028.56
2023-04-08T11:18:27.585Z,102022.09
2023-04-08T11:20:54.752Z,102027.78
2023-04-08T11:23:23.069Z,102021.47
2023-04-08T11:25:50.006Z,102026.50
2023-04-08T11:28:17.227Z,102020.03
2023-04-08T11:30:44.323Z,102017.41
2023-04-08T11:33:11.548Z,102019.88
2023-04-08T11:35:42.585Z,102014.28
2023-04-08T11:38:10.117Z,102008.75
2023-04-08T11:40:37.003Z,102017.59
2023-04-08T11:43:15.665Z,102011.16
2023-04-08T11:45:42.744Z,102025.91
2023-04-08T11:48:14.450Z,102016.69
2023-04-08T11:50:42.072Z,102021.69
2023-04-08T11:53:27.025Z,102029.09
2023-04-08T11:55:53.769Z,102032.56
2023-04-08T11:58:20.444Z,102027.00
2023-04-08T12:00:47.689Z,102034.22
2023-04-08T12:03:14.562Z,102038.53
2023-04-08T12:05:41.569Z,102039.00
2023-04-08T12:08:08.236Z,102036.69
2023-04-08T12:10:34.986Z,102036.91
2023-04-08T12:13:01.870Z,102040.44
2023-04-08T12:15:28.620Z,102038.72
2023-04-08T12:17:56.141Z,102035.94
2023-04-08T12:20:22.927Z,102039.06
2023-04-08T12:22:49.621Z,102044.09
2023-04-08T12:25:16.437Z,102038.13
2023-04-08T12:27:43.442Z,102035.13
2023-04-08T12:30:10.789Z,102042.78
2023-04-08T12:32:37.724Z,102046.41
2023-04-08T12:35:04.715Z,102040.31
2023-04-08T12:37:33.512Z,102037.97
2023-04-08T12:40:00.470Z,102034.94
2023-04-08T12:42:28.151Z,102038.28
2023-04-08T12:44:54.938Z,102035.28
2023-04-08T12:47:22.227Z,102030.41
2023-04-08T12:49:50.365Z,102034.94
2023-04-08T12:52:17.800Z,102035.41
2023-04-08T12:54:44.872Z,102032.94
2023-04-08T12:57:12.006Z,102033.38
2023-04-08T12:59:40.194Z,102033.00
2023-04-08T13:02:08.230Z,102022.78
2023-04-08T13:04:35.318Z,102021.00
2023-04-08T13:07:02.564Z,102027.72
2023-04-08T13:09:32.128Z,102026.09
2023-04-08T13:11:58.833Z,102030.88
2023-04-08T13:14:25.830Z,102031.88
2023-04-08T13:16:52.822Z,102022.84
2023-04-08T13:19:19.626Z,102026.53
2023-04-08T13:21:46.540Z,102028.53
2023-04-08T13:24:13.401Z,102023.28
2023-04-08T13:26:40.108Z,102028.75
2023-04-08T13:29:06.968Z,102021.59
2023-04-08T13:31:33.730Z,102018.59
2023-04-08T13:34:00.469Z,102022.63
2023-04-08T13:36:29.154Z,102016.00
2023-04-08T13:38:56.694Z,102013.59
2023-04-08T13:41:23.585Z,102014.00
2023-04-08T13:43:50.743Z,102016.41
2023-04-08T13:46:18.455Z,102019.31
2023-04-08T13:48:46.169Z,102008.94
2023-04-08T13:51:12.917Z,102009.38
2023-04-08T13:53:39.686Z,102013.47
2023-04-08T13:56:06.692Z,102007.28
2023-04-08T13:58:33.381Z,102014.94
2023-04-08T14:01:00.138Z,102004.75
2023-04-08T14:03:28.262Z,102007.41
2023-04-08T14:05:55.102Z,102009.72
2023-04-08T14:08:25.817Z,102013.34
2023-04-08T14:10:53.529Z,102018.13
2023-04-08T14:13:20.528Z,102012.41
2023-04-08T14:15:50.342Z,102005.53
2023-04-08T14:18:20.052Z,102011.13
2023-04-08T14:20:46.847Z,102009.38
2023-04-08T14:23:13.748Z,102005.47
2023-04-08T14:25:41.109Z,101998.03
2023-04-08T14:28:08.296Z,102006.75
2023-04-08T14:30:36.392Z,102003.25
2023-04-08T14:33:03.375Z,101998.63
2023-04-08T14:35:30.204Z,102003.88
2023-04-08T14:37:57.034Z,102005.47
2023-04-08T14:40:24.000Z,102000.69
2023-04-08T14:42:50.722Z,101995.44
2023-04-08T14:45:17.790Z,101990.53
2023-04-08T14:47:44.523Z,101998.47
2023-04-08T14:50:12.067Z,101998.22
2023-04-08T14:52:38.801Z,101995.72
2023-04-08T14:55:06.080Z,101997.31
2023-04-08T14:57:32.910Z,101993.19
2023-04-08T14:59:59.700Z,102007.91
2023-04-08T15:02:26.474Z,102006.41
2023-04-08T15:04:53.170Z,102002.81
2023-04-08T15:07:19.955Z,102006.66
2023-04-08T15:09:47.113Z,102005.81
2023-04-08T15:12:13.889Z,102006.81
2023-04-08T15:14:40.784Z,102004.16
2023-04-08T15:17:07.462Z,101998.56
2023-04-08T15:19:34.133Z,101995.75
2023-04-08T15:22:00.860Z,102007.03
2023-04-08T15:24:27.717Z,102004.53
2023-04-08T15:26:54.436Z,102006.13
2023-04-08T15:29:23.388Z,102009.38
2023-04-08T15:31:50.166Z,102012.59
2023-04-08T15:34:17.098Z,102008.69
2023-04-08T15:36:45.399Z,102001.03
2023-04-08T15:39:12.339Z,102007.22
2023-04-08T15:41:39.098Z,102004.03
2023-04-08T15:44:05.951Z,102003.09
2023-04-08T15:46:33.980Z,102009.09
2023-04-08T15:49:01.733Z,102009.69
2023-04-08T15:51:28.830Z,102014.25
2023-04-08T15:53:55.533Z,102016.00
2023-04-08T15:56:22.396Z,102014.69
2023-04-08T15:58:49.349Z,102010.66
2023-04-08T16:01:17.266Z,102014.09
2023-04-08T16:03:44.095Z,102006.00
2023-04-08T16:06:11.384Z,102002.03
2023-04-08T16:08:38.101Z,102011.47
2023-04-08T16:11:06.532Z,102006.75
2023-04-08T16:13:34.295Z,102000.72
2023-04-08T16:16:04.294Z,101999.53
2023-04-08T16:18:31.186Z,102001.13
2023-04-08T16:20:58.012Z,102002.78
2023-04-08T16:23:24.839Z,102002.53
2023-04-08T16:25:52.061Z,102000.53
2023-04-08T16:28:18.881Z,101994.53
2023-04-08T16:30:48.006Z,101992.81
2023-04-08T16:33:14.894Z,101997.19
2023-04-08T16:35:41.684Z,101996.34
2023-04-08T16:38:08.442Z,102003.28
2023-04-08T16:40:35.317Z,102005.97
2023-04-08T16:43:02.873Z,102008.66
2023-04-08T16:45:30.150Z,102009.69
2023-04-08T16:47:57.485Z,102012.41
2023-04-08T16:50:24.447Z,102008.00
2023-04-08T16:52:51.127Z,102006.16
2023-04-08T16:55:18.397Z,102016.09
2023-04-08T16:57:45.154Z,102019.19
2023-04-08T17:00:12.237Z,102023.56
2023-04-08T17:02:44.019Z,102017.59
2023-04-08T17:05:11.144Z,102018.19
2023-04-08T17:07:37.823Z,102018.25
2023-04-08T17:10:04.992Z,102017.44
2023-04-08T17:12:32.296Z,102012.28
2023-04-08T17:14:59.046Z,102023.72
2023-04-08T17:17:25.809Z,102021.16
2023-04-08T17:19:53.254Z,102016.91
2023-04-08T17:22:19.896Z,102019.53
2023-04-08T17:24:47.969Z,102017.78
2023-04-08T17:27:14.716Z,102016.97
2023-04-08T17:29:41.663Z,102016.91
2023-04-08T17:32:08.495Z,102017.84
2023-04-08T17:34:35.474Z,102017.19
2023-04-08T17:37:02.359Z,102025.41
2023-04-08T17:39:30.424Z,102022.91
2023-04-08T17:41:57.736Z,102024.75
2023-04-08T17:44:29.966Z,102022.81
2023-04-08T17:46:57.033Z,102026.13
2023-04-08T17:49:23.903Z,102039.47
2023-04-08T17:51:50.987Z,102033.28
2023-04-08T17:54:18.065Z,102043.81
2023-04-08T17:56:45.819Z,102041.94
2023-04-08T17:59:13.385Z,102046.25
2023-04-08T18:01:40.342Z,102049.53
2023-04-08T18:04:08.644Z,102054.13
2023-04-08T18:06:35.498Z,102052.47
2023-04-08T18:09:03.952Z,102056.13
2023-04-08T18:11:31.082Z,102045.50
2023-04-08T18:13:58.001Z,102051.81
2023-04-08T18:16:24.762Z,102055.19
2023-04-08T18:18:51.611Z,102055.22
2023-04-08T18:21:18.706Z,102064.97
2023-04-08T18:23:47.285Z,102065.75
2023-04-08T18:26:14.091Z,102070.88
2023-04-08T18:28:41.388Z,102070.03
2023-04-08T18:31:08.450Z,102064.84
2023-04-08T18:33:35.531Z,102065.47
2023-04-08T18:36:09.654Z,102062.97
2023-04-08T18:38:37.002Z,102063.84
2023-04-08T18:41:04.682Z,102055.88
2023-04-08T18:43:32.023Z,102056.09
2023-04-08T18:45:59.125Z,102062.19
2023-04-08T18:48:26.009Z,102060.25
2023-04-08T18:50:52.898Z,102074.28
2023-04-08T18:53:19.623Z,102074.59
2023-04-08T18:55:46.444Z,102073.59
2023-04-08T18:58:13.165Z,102069.91
2023-04-08T19:00:41.718Z,102068.19
2023-04-08T19:03:10.284Z,102075.34
2023-04-08T19:05:37.868Z,102071.63
2023-04-08T19:08:05.952Z,102077.88
2023-04-08T19:10:33.608Z,102076.34
2023-04-08T19:13:01.033Z,102077.19
2023-04-08T19:15:29.004Z,102077.34
2023-04-08T19:17:56.716Z,102077.47
2023-04-08T19:20:23.781Z,102080.91
2023-04-08T19:22:51.290Z,102082.50
2023-04-08T19:25:18.100Z,102079.78
2023-04-08T19:27:46.083Z,102085.97
2023-04-08T19:30:13.467Z,102081.78
2023-04-08T19:32:40.454Z,102084.31
2023-04-08T19:35:07.902Z,102094.28
2023-04-08T19:37:34.947Z,102089.88
2023-04-08T19:40:01.778Z,102089.88
2023-04-08T19:42:29.352Z,102093.31
2023-04-08T19:44:56.357Z,102094.38
2023-04-08T19:47:23.042Z,102093.66
2023-04-08T19:49:49.901Z,102092.38
2023-04-08T19:52:16.607Z,102098.97
2023-04-08T19:54:43.730Z,102084.63
2023-04-08T19:57:11.760Z,102095.25
2023-04-08T19:59:38.500Z,102094.28
2023-04-08T20:02:05.552Z,102096.22
2023-04-08T20:04:33.009Z,102099.84
2023-04-08T20:07:04.000Z,102095.69
2023-04-08T20:09:32.603Z,102102.72
2023-04-08T20:12:04.720Z,102097.03
2023-04-08T20:14:40.583Z,102095.00
2023-04-08T20:17:07.730Z,102097.66
2023-04-08T20:19:34.409Z,102101.88
2023-04-08T20:22:01.796Z,102109.88
2023-04-08T20:24:28.618Z,102102.03
2023-04-08T20:26:55.341Z,102105.69
2023-04-08T20:29:22.043Z,102108.16
2023-04-08T20:31:48.823Z,102112.66
2023-04-08T20:34:15.568Z,102109.06
2023-04-08T20:36:42.538Z,102112.50
2023-04-08T20:39:12.666Z,102109.94
2023-04-08T20:41:39.447Z,102118.66
2023-04-08T20:44:07.236Z,102115.19
2023-04-08T20:46:35.400Z,102118.09
2023-04-08T20:49:03.851Z,102109.31
2023-04-08T20:51:31.602Z,102111.91
2023-04-08T20:53:58.508Z,102102.34
2023-04-08T20:56:26.597Z,102111.28
2023-04-08T20:58:53.627Z,102108.63
2023-04-08T21:01:20.764Z,102105.16
2023-04-08T21:03:48.230Z,102103.38
2023-04-08T21:06:18.873Z,102106.09
2023-04-08T21:08:46.365Z,102101.84
2023-04-08T21:11:13.494Z,102101.19
2023-04-08T21:13:40.443Z,102103.50
2023-04-08T21:16:07.744Z,102103.72
2023-04-08T21:18:35.219Z,102106.47
2023-04-08T21:21:01.920Z,102106.56
2023-04-08T21:23:28.630Z,102101.06
2023-04-08T21:25:55.563Z,102102.00
2023-04-08T21:28:22.444Z,102101.94
2023-04-08T21:30:49.231Z,102103.72
2023-04-08T21:33:15.959Z,102106.34
2023-04-08T21:35:42.710Z,102098.47
2023-04-08T21:38:09.436Z,102099.56
2023-04-08T21:40:36.235Z,102107.59
2023-04-08T21:43:02.964Z,102108.28
2023-04-08T21:45:30.188Z,102111.94
2023-04-08T21:47:56.961Z,102101.31
2023-04-08T21:50:23.758Z,102104.59
2023-04-08T21:52:50.536Z,102108.22
2023-04-08T21:55:17.226Z,102110.78
2023-04-08T21:57:43.924Z,102119.72
2023-04-08T22:00:13.619Z,102105.63
2023-04-08T22:02:44.041Z,102109.97
2023-04-08T22:05:11.648Z,102094.03
2023-04-08T22:07:38.364Z,102099.53
2023-04-08T22:10:05.428Z,102097.78
2023-04-08T22:12:32.168Z,102100.44
2023-04-08T22:14:58.830Z,102097.84
2023-04-08T22:17:25.872Z,102102.63
2023-04-08T22:19:52.575Z,102104.38
2023-04-08T22:22:19.311Z,102107.94
2023-04-08T22:24:46.322Z,102101.00
2023-04-08T22:27:13.019Z,102112.44
2023-04-08T22:29:39.741Z,102102.78
2023-04-08T22:32:06.923Z,102106.84
2023-04-08T22:34:33.685Z,102102.63
2023-04-08T22:37:00.322Z,102100.78
2023-04-08T22:39:27.755Z,102103.31
2023-04-08T22:41:54.510Z,102102.63
2023-04-08T22:44:21.139Z,102106.63
2023-04-08T22:46:48.424Z,102098.75
2023-04-08T22:49:15.086Z,102102.41
2023-04-08T22:51:43.138Z,102103.19
2023-04-08T22:54:09.851Z,102101.56
2023-04-08T22:56:36.830Z,102098.97
2023-04-08T22:59:03.629Z,102098.31
2023-04-08T23:01:30.594Z,102097.47
2023-04-08T23:03:57.346Z,102095.91
2023-04-08T23:06:24.027Z,102091.63
2023-04-08T23:08:51.164Z,102093.28
2023-04-08T23:11:18.092Z,102092.53
2023-04-08T23:13:44.724Z,102092.66
2023-04-08T23:16:11.522Z,102087.63
2023-04-08T23:18:38.219Z,102087.81
2023-04-08T23:21:05.207Z,102088.06
2023-04-08T23:23:32.081Z,102091.59
2023-04-08T23:25:58.789Z,102088.97
2023-04-08T23:28:25.607Z,102076.16
2023-04-08T23:30:53.096Z,102076.41
2023-04-08T23:33:19.812Z,102073.44
2023-04-08T23:35:46.543Z,102070.59
2023-04-08T23:38:13.233Z,102074.16
2023-04-08T23:40:39.999Z,102069.66
2023-04-08T23:43:06.680Z,102071.91
2023-04-08T23:45:33.382Z,102065.19
2023-04-08T23:48:00.036Z,102075.66
2023-04-08T23:50:26.746Z,102075.94
2023-04-08T23:52:53.446Z,102071.63
2023-04-08T23:55:20.146Z,102072.44
2023-04-08T23:57:49.398Z,102084.03
